sensor_id;sensor_type;location;lat;lon;timestamp;P1;durP1;ratioP1;P2;durP2;ratioP2
20076;SDS011;12348;42.710;23.378;2022-12-18T00:00:11;13.53;;;7.40;;
20076;SDS011;12348;42.710;23.378;2022-12-18T00:02:38;12.20;;;8.00;;
20076;SDS011;12348;42.710;23.378;2022-12-18T00:05:07;15.97;;;8.00;;
20076;SDS011;12348;42.710;23.378;2022-12-18T00:07:34;17.40;;;9.27;;
20076;SDS011;12348;42.710;23.378;2022-12-18T00:10:02;14.17;;;7.43;;
20076;SDS011;12348;42.710;23.378;2022-12-18T00:12:29;15.43;;;6.97;;
20076;SDS011;12348;42.710;23.378;2022-12-18T00:14:56;15.53;;;8.33;;
20076;SDS011;12348;42.710;23.378;2022-12-18T00:17:23;14.93;;;8.10;;
20076;SDS011;12348;42.710;23.378;2022-12-18T00:19:50;12.53;;;7.93;;
20076;SDS011;12348;42.710;23.378;2022-12-18T00:22:18;14.23;;;8.60;;
20076;SDS011;12348;42.710;23.378;2022-12-18T00:24:45;14.03;;;7.33;;
20076;SDS011;12348;42.710;23.378;2022-12-18T00:27:12;15.40;;;8.40;;
20076;SDS011;12348;42.710;23.378;2022-12-18T00:29:38;14.70;;;7.00;;
20076;SDS011;12348;42.710;23.378;2022-12-18T00:32:06;12.23;;;8.03;;
20076;SDS011;12348;42.710;23.378;2022-12-18T00:34:33;12.33;;;6.70;;
20076;SDS011;12348;42.710;23.378;2022-12-18T00:37:00;14.27;;;8.80;;
20076;SDS011;12348;42.710;23.378;2022-12-18T00:39:28;15.43;;;8.07;;
20076;SDS011;12348;42.710;23.378;2022-12-18T00:41:55;19.37;;;8.07;;
20076;SDS011;12348;42.710;23.378;2022-12-18T00:44:39;16.43;;;8.73;;
20076;SDS011;12348;42.710;23.378;2022-12-18T00:47:06;13.07;;;7.60;;
20076;SDS011;12348;42.710;23.378;2022-12-18T00:49:32;17.27;;;8.27;;
20076;SDS011;12348;42.710;23.378;2022-12-18T00:51:59;17.50;;;9.17;;
20076;SDS011;12348;42.710;23.378;2022-12-18T00:54:27;13.03;;;7.17;;
20076;SDS011;12348;42.710;23.378;2022-12-18T00:56:54;14.70;;;8.17;;
20076;SDS011;12348;42.710;23.378;2022-12-18T00:59:21;12.67;;;7.53;;
20076;SDS011;12348;42.710;23.378;2022-12-18T01:04:16;14.87;;;8.07;;
20076;SDS011;12348;42.710;23.378;2022-12-18T01:06:43;12.87;;;7.43;;
20076;SDS011;12348;42.710;23.378;2022-12-18T01:09:10;13.70;;;8.47;;
20076;SDS011;12348;42.710;23.378;2022-12-18T01:11:38;14.30;;;7.80;;
20076;SDS011;12348;42.710;23.378;2022-12-18T01:14:06;15.23;;;7.30;;
20076;SDS011;12348;42.710;23.378;2022-12-18T01:16:32;15.50;;;6.93;;
20076;SDS011;12348;42.710;23.378;2022-12-18T01:19:00;14.73;;;8.40;;
20076;SDS011;12348;42.710;23.378;2022-12-18T01:21:27;18.93;;;8.33;;
20076;SDS011;12348;42.710;23.378;2022-12-18T01:23:55;15.67;;;7.83;;
20076;SDS011;12348;42.710;23.378;2022-12-18T01:26:22;17.03;;;8.63;;
20076;SDS011;12348;42.710;23.378;2022-12-18T01:28:54;14.73;;;7.73;;
20076;SDS011;12348;42.710;23.378;2022-12-18T01:31:23;13.00;;;7.03;;
20076;SDS011;12348;42.710;23.378;2022-12-18T01:33:51;20.83;;;9.53;;
20076;SDS011;12348;42.710;23.378;2022-12-18T01:36:19;10.87;;;7.63;;
20076;SDS011;12348;42.710;23.378;2022-12-18T01:38:48;16.07;;;8.37;;
20076;SDS011;12348;42.710;23.378;2022-12-18T01:41:16;14.53;;;9.00;;
20076;SDS011;12348;42.710;23.378;2022-12-18T01:43:47;13.20;;;8.40;;
20076;SDS011;12348;42.710;23.378;2022-12-18T01:46:17;16.60;;;7.97;;
20076;SDS011;12348;42.710;23.378;2022-12-18T01:48:46;14.93;;;8.33;;
20076;SDS011;12348;42.710;23.378;2022-12-18T01:51:15;15.30;;;7.50;;
20076;SDS011;12348;42.710;23.378;2022-12-18T01:53:43;13.63;;;7.57;;
20076;SDS011;12348;42.710;23.378;2022-12-18T01:56:14;17.03;;;9.30;;
20076;SDS011;12348;42.710;23.378;2022-12-18T01:58:48;16.83;;;9.03;;
20076;SDS011;12348;42.710;23.378;2022-12-18T02:01:22;13.70;;;8.67;;
20076;SDS011;12348;42.710;23.378;2022-12-18T02:03:50;13.53;;;7.63;;
20076;SDS011;12348;42.710;23.378;2022-12-18T02:06:19;15.37;;;9.13;;
20076;SDS011;12348;42.710;23.378;2022-12-18T02:08:57;14.37;;;7.73;;
20076;SDS011;12348;42.710;23.378;2022-12-18T02:11:37;17.50;;;9.33;;
20076;SDS011;12348;42.710;23.378;2022-12-18T02:14:15;12.30;;;6.87;;
20076;SDS011;12348;42.710;23.378;2022-12-18T02:16:48;11.83;;;6.63;;
20076;SDS011;12348;42.710;23.378;2022-12-18T02:19:24;17.70;;;9.00;;
20076;SDS011;12348;42.710;23.378;2022-12-18T02:22:07;15.53;;;8.77;;
20076;SDS011;12348;42.710;23.378;2022-12-18T02:24:48;12.87;;;7.40;;
20076;SDS011;12348;42.710;23.378;2022-12-18T02:27:27;12.87;;;6.93;;
20076;SDS011;12348;42.710;23.378;2022-12-18T02:29:56;11.27;;;7.20;;
20076;SDS011;12348;42.710;23.378;2022-12-18T02:32:26;15.03;;;7.53;;
20076;SDS011;12348;42.710;23.378;2022-12-18T02:34:55;13.70;;;6.80;;
20076;SDS011;12348;42.710;23.378;2022-12-18T02:37:23;12.70;;;7.80;;
20076;SDS011;12348;42.710;23.378;2022-12-18T02:39:54;19.03;;;9.37;;
20076;SDS011;12348;42.710;23.378;2022-12-18T02:42:23;20.90;;;10.17;;
20076;SDS011;12348;42.710;23.378;2022-12-18T02:44:52;11.90;;;7.00;;
20076;SDS011;12348;42.710;23.378;2022-12-18T02:47:20;12.00;;;7.93;;
20076;SDS011;12348;42.710;23.378;2022-12-18T02:49:52;12.53;;;6.97;;
20076;SDS011;12348;42.710;23.378;2022-12-18T02:52:27;13.97;;;7.07;;
20076;SDS011;12348;42.710;23.378;2022-12-18T02:55:05;17.83;;;6.20;;
20076;SDS011;12348;42.710;23.378;2022-12-18T02:57:42;7.53;;;4.80;;
20076;SDS011;12348;42.710;23.378;2022-12-18T03:00:14;12.10;;;6.70;;
20076;SDS011;12348;42.710;23.378;2022-12-18T03:02:45;10.17;;;5.80;;
20076;SDS011;12348;42.710;23.378;2022-12-18T03:05:16;12.03;;;6.67;;
20076;SDS011;12348;42.710;23.378;2022-12-18T03:07:46;13.13;;;6.63;;
20076;SDS011;12348;42.710;23.378;2022-12-18T03:10:17;12.37;;;7.80;;
20076;SDS011;12348;42.710;23.378;2022-12-18T03:12:51;15.07;;;8.10;;
20076;SDS011;12348;42.710;23.378;2022-12-18T03:15:24;12.33;;;6.97;;
20076;SDS011;12348;42.710;23.378;2022-12-18T03:17:55;16.50;;;8.60;;
20076;SDS011;12348;42.710;23.378;2022-12-18T03:20:25;12.67;;;7.07;;
20076;SDS011;12348;42.710;23.378;2022-12-18T03:22:57;15.63;;;8.73;;
20076;SDS011;12348;42.710;23.378;2022-12-18T03:25:30;13.87;;;7.90;;
20076;SDS011;12348;42.710;23.378;2022-12-18T03:28:00;13.63;;;8.63;;
20076;SDS011;12348;42.710;23.378;2022-12-18T03:30:31;12.63;;;7.13;;
20076;SDS011;12348;42.710;23.378;2022-12-18T03:33:01;15.53;;;7.90;;
20076;SDS011;12348;42.710;23.378;2022-12-18T03:35:35;10.43;;;7.03;;
20076;SDS011;12348;42.710;23.378;2022-12-18T03:38:04;11.90;;;6.93;;
20076;SDS011;12348;42.710;23.378;2022-12-18T03:40:33;17.40;;;8.20;;
20076;SDS011;12348;42.710;23.378;2022-12-18T03:43:08;13.97;;;7.47;;
20076;SDS011;12348;42.710;23.378;2022-12-18T03:45:43;15.07;;;6.93;;
20076;SDS011;12348;42.710;23.378;2022-12-18T03:48:18;14.33;;;7.90;;
20076;SDS011;12348;42.710;23.378;2022-12-18T03:50:51;11.47;;;5.83;;
20076;SDS011;12348;42.710;23.378;2022-12-18T03:53:24;14.93;;;7.60;;
20076;SDS011;12348;42.710;23.378;2022-12-18T03:55:58;15.27;;;7.60;;
20076;SDS011;12348;42.710;23.378;2022-12-18T03:58:27;9.87;;;6.03;;
20076;SDS011;12348;42.710;23.378;2022-12-18T04:01:01;13.27;;;7.80;;
20076;SDS011;12348;42.710;23.378;2022-12-18T04:03:31;10.10;;;6.23;;
20076;SDS011;12348;42.710;23.378;2022-12-18T04:06:00;12.77;;;6.50;;
20076;SDS011;12348;42.710;23.378;2022-12-18T04:08:27;13.87;;;7.40;;
20076;SDS011;12348;42.710;23.378;2022-12-18T04:10:55;13.30;;;8.00;;
20076;SDS011;12348;42.710;23.378;2022-12-18T04:13:22;11.50;;;7.87;;
20076;SDS011;12348;42.710;23.378;2022-12-18T04:15:49;14.93;;;8.83;;
20076;SDS011;12348;42.710;23.378;2022-12-18T04:18:17;13.77;;;7.47;;
20076;SDS011;12348;42.710;23.378;2022-12-18T04:20:44;19.60;;;9.63;;
20076;SDS011;12348;42.710;23.378;2022-12-18T04:23:11;18.23;;;8.10;;
20076;SDS011;12348;42.710;23.378;2022-12-18T04:25:38;14.97;;;8.87;;
20076;SDS011;12348;42.710;23.378;2022-12-18T04:28:05;17.43;;;9.27;;
20076;SDS011;12348;42.710;23.378;2022-12-18T04:30:32;17.47;;;7.93;;
20076;SDS011;12348;42.710;23.378;2022-12-18T04:32:58;19.43;;;9.73;;
20076;SDS011;12348;42.710;23.378;2022-12-18T04:35:27;20.00;;;10.17;;
20076;SDS011;12348;42.710;23.378;2022-12-18T04:37:53;15.03;;;8.43;;
20076;SDS011;12348;42.710;23.378;2022-12-18T04:40:20;23.27;;;10.13;;
20076;SDS011;12348;42.710;23.378;2022-12-18T04:42:47;18.13;;;9.50;;
20076;SDS011;12348;42.710;23.378;2022-12-18T04:45:14;11.53;;;7.47;;
20076;SDS011;12348;42.710;23.378;2022-12-18T04:47:40;21.27;;;8.80;;
20076;SDS011;12348;42.710;23.378;2022-12-18T04:50:07;21.70;;;10.60;;
20076;SDS011;12348;42.710;23.378;2022-12-18T04:52:36;17.37;;;9.20;;
20076;SDS011;12348;42.710;23.378;2022-12-18T04:55:02;18.50;;;9.70;;
20076;SDS011;12348;42.710;23.378;2022-12-18T04:57:29;20.10;;;8.80;;
20076;SDS011;12348;42.710;23.378;2022-12-18T04:59:56;18.47;;;8.03;;
20076;SDS011;12348;42.710;23.378;2022-12-18T05:02:23;22.47;;;9.90;;
20076;SDS011;12348;42.710;23.378;2022-12-18T05:04:50;17.87;;;9.50;;
20076;SDS011;12348;42.710;23.378;2022-12-18T05:07:16;15.77;;;8.77;;
20076;SDS011;12348;42.710;23.378;2022-12-18T05:09:45;23.33;;;10.43;;
20076;SDS011;12348;42.710;23.378;2022-12-18T05:12:12;16.80;;;9.53;;
20076;SDS011;12348;42.710;23.378;2022-12-18T05:14:38;19.43;;;10.77;;
20076;SDS011;12348;42.710;23.378;2022-12-18T05:17:05;17.20;;;10.20;;
20076;SDS011;12348;42.710;23.378;2022-12-18T05:19:32;22.63;;;10.60;;
20076;SDS011;12348;42.710;23.378;2022-12-18T05:21:59;17.20;;;9.17;;
20076;SDS011;12348;42.710;23.378;2022-12-18T05:24:26;20.83;;;9.93;;
20076;SDS011;12348;42.710;23.378;2022-12-18T05:26:54;21.37;;;10.30;;
20076;SDS011;12348;42.710;23.378;2022-12-18T05:29:21;19.47;;;9.73;;
20076;SDS011;12348;42.710;23.378;2022-12-18T05:31:48;21.57;;;10.03;;
20076;SDS011;12348;42.710;23.378;2022-12-18T05:34:15;21.40;;;10.30;;
20076;SDS011;12348;42.710;23.378;2022-12-18T05:36:42;20.40;;;9.67;;
20076;SDS011;12348;42.710;23.378;2022-12-18T05:39:08;21.70;;;10.53;;
20076;SDS011;12348;42.710;23.378;2022-12-18T05:41:35;22.37;;;10.80;;
20076;SDS011;12348;42.710;23.378;2022-12-18T05:44:03;25.67;;;12.77;;
20076;SDS011;12348;42.710;23.378;2022-12-18T05:46:31;17.77;;;9.27;;
20076;SDS011;12348;42.710;23.378;2022-12-18T05:48:58;22.30;;;9.83;;
20076;SDS011;12348;42.710;23.378;2022-12-18T05:51:26;19.30;;;7.60;;
20076;SDS011;12348;42.710;23.378;2022-12-18T05:53:53;20.83;;;10.67;;
20076;SDS011;12348;42.710;23.378;2022-12-18T05:56:21;13.77;;;8.47;;
20076;SDS011;12348;42.710;23.378;2022-12-18T05:58:51;19.67;;;9.67;;
20076;SDS011;12348;42.710;23.378;2022-12-18T06:01:21;25.20;;;10.13;;
20076;SDS011;12348;42.710;23.378;2022-12-18T06:03:49;26.97;;;12.93;;
20076;SDS011;12348;42.710;23.378;2022-12-18T06:06:17;25.63;;;11.23;;
20076;SDS011;12348;42.710;23.378;2022-12-18T06:08:44;19.27;;;10.27;;
20076;SDS011;12348;42.710;23.378;2022-12-18T06:11:12;26.90;;;12.10;;
20076;SDS011;12348;42.710;23.378;2022-12-18T06:13:39;20.03;;;11.80;;
20076;SDS011;12348;42.710;23.378;2022-12-18T06:16:06;20.30;;;10.93;;
20076;SDS011;12348;42.710;23.378;2022-12-18T06:18:35;25.90;;;12.57;;
20076;SDS011;12348;42.710;23.378;2022-12-18T06:21:03;27.97;;;12.17;;
20076;SDS011;12348;42.710;23.378;2022-12-18T06:23:30;21.57;;;10.80;;
20076;SDS011;12348;42.710;23.378;2022-12-18T06:25:56;33.23;;;13.53;;
20076;SDS011;12348;42.710;23.378;2022-12-18T06:28:24;19.70;;;10.50;;
20076;SDS011;12348;42.710;23.378;2022-12-18T06:30:50;20.87;;;9.80;;
20076;SDS011;12348;42.710;23.378;2022-12-18T06:33:18;20.43;;;9.70;;
20076;SDS011;12348;42.710;23.378;2022-12-18T06:35:47;19.33;;;10.20;;
20076;SDS011;12348;42.710;23.378;2022-12-18T06:38:14;23.40;;;10.03;;
20076;SDS011;12348;42.710;23.378;2022-12-18T06:40:40;26.23;;;12.93;;
20076;SDS011;12348;42.710;23.378;2022-12-18T06:43:07;22.37;;;10.70;;
20076;SDS011;12348;42.710;23.378;2022-12-18T06:45:34;21.13;;;11.27;;
20076;SDS011;12348;42.710;23.378;2022-12-18T06:48:00;25.20;;;11.83;;
20076;SDS011;12348;42.710;23.378;2022-12-18T06:50:27;23.23;;;10.63;;
20076;SDS011;12348;42.710;23.378;2022-12-18T06:52:58;22.77;;;10.57;;
20076;SDS011;12348;42.710;23.378;2022-12-18T06:55:25;21.20;;;10.67;;
20076;SDS011;12348;42.710;23.378;2022-12-18T06:57:52;20.73;;;10.73;;
20076;SDS011;12348;42.710;23.378;2022-12-18T07:00:19;21.70;;;10.27;;
20076;SDS011;12348;42.710;23.378;2022-12-18T07:02:45;24.73;;;11.93;;
20076;SDS011;12348;42.710;23.378;2022-12-18T07:05:12;20.30;;;10.23;;
20076;SDS011;12348;42.710;23.378;2022-12-18T07:07:39;24.30;;;10.27;;
20076;SDS011;12348;42.710;23.378;2022-12-18T07:10:07;21.40;;;9.40;;
20076;SDS011;12348;42.710;23.378;2022-12-18T07:12:35;24.53;;;10.43;;
20076;SDS011;12348;42.710;23.378;2022-12-18T07:15:02;22.77;;;11.30;;
20076;SDS011;12348;42.710;23.378;2022-12-18T07:17:29;17.40;;;9.57;;
20076;SDS011;12348;42.710;23.378;2022-12-18T07:19:56;23.13;;;11.23;;
20076;SDS011;12348;42.710;23.378;2022-12-18T07:22:24;21.07;;;10.37;;
20076;SDS011;12348;42.710;23.378;2022-12-18T07:24:51;18.10;;;8.93;;
20076;SDS011;12348;42.710;23.378;2022-12-18T07:27:19;22.63;;;10.07;;
20076;SDS011;12348;42.710;23.378;2022-12-18T07:29:46;18.37;;;9.53;;
20076;SDS011;12348;42.710;23.378;2022-12-18T07:32:12;19.37;;;8.57;;
20076;SDS011;12348;42.710;23.378;2022-12-18T07:34:39;23.90;;;11.47;;
20076;SDS011;12348;42.710;23.378;2022-12-18T07:37:06;24.43;;;10.97;;
20076;SDS011;12348;42.710;23.378;2022-12-18T07:39:33;26.00;;;11.50;;
20076;SDS011;12348;42.710;23.378;2022-12-18T07:41:59;16.73;;;9.20;;
20076;SDS011;12348;42.710;23.378;2022-12-18T07:44:45;23.63;;;11.97;;
20076;SDS011;12348;42.710;23.378;2022-12-18T07:47:12;19.40;;;10.20;;
20076;SDS011;12348;42.710;23.378;2022-12-18T07:49:39;23.13;;;9.77;;
20076;SDS011;12348;42.710;23.378;2022-12-18T07:52:05;19.57;;;11.13;;
20076;SDS011;12348;42.710;23.378;2022-12-18T07:54:33;22.40;;;9.80;;
20076;SDS011;12348;42.710;23.378;2022-12-18T07:56:59;20.57;;;9.07;;
20076;SDS011;12348;42.710;23.378;2022-12-18T07:59:26;23.70;;;10.73;;
20076;SDS011;12348;42.710;23.378;2022-12-18T08:01:54;18.97;;;9.10;;
20076;SDS011;12348;42.710;23.378;2022-12-18T08:04:22;19.97;;;10.10;;
20076;SDS011;12348;42.710;23.378;2022-12-18T08:06:48;24.90;;;12.10;;
20076;SDS011;12348;42.710;23.378;2022-12-18T08:09:15;23.27;;;12.10;;
20076;SDS011;12348;42.710;23.378;2022-12-18T08:11:42;22.80;;;10.97;;
20076;SDS011;12348;42.710;23.378;2022-12-18T08:14:09;21.23;;;11.47;;
20076;SDS011;12348;42.710;23.378;2022-12-18T08:16:36;26.53;;;11.33;;
20076;SDS011;12348;42.710;23.378;2022-12-18T08:19:06;19.20;;;10.37;;
20076;SDS011;12348;42.710;23.378;2022-12-18T08:21:33;23.03;;;11.20;;
20076;SDS011;12348;42.710;23.378;2022-12-18T08:24:00;25.87;;;12.57;;
20076;SDS011;12348;42.710;23.378;2022-12-18T08:26:28;23.87;;;12.20;;
20076;SDS011;12348;42.710;23.378;2022-12-18T08:28:56;29.60;;;14.10;;
20076;SDS011;12348;42.710;23.378;2022-12-18T08:31:25;19.33;;;9.37;;
20076;SDS011;12348;42.710;23.378;2022-12-18T08:33:54;28.77;;;12.93;;
20076;SDS011;12348;42.710;23.378;2022-12-18T08:36:22;28.10;;;12.10;;
20076;SDS011;12348;42.710;23.378;2022-12-18T08:38:50;27.10;;;12.50;;
20076;SDS011;12348;42.710;23.378;2022-12-18T08:41:17;25.43;;;12.93;;
20076;SDS011;12348;42.710;23.378;2022-12-18T08:43:44;29.97;;;12.00;;
20076;SDS011;12348;42.710;23.378;2022-12-18T08:46:31;23.03;;;10.67;;
20076;SDS011;12348;42.710;23.378;2022-12-18T08:49:00;24.87;;;11.80;;
20076;SDS011;12348;42.710;23.378;2022-12-18T08:51:28;28.47;;;11.07;;
20076;SDS011;12348;42.710;23.378;2022-12-18T08:53:55;26.77;;;11.30;;
20076;SDS011;12348;42.710;23.378;2022-12-18T08:56:22;24.33;;;9.83;;
20076;SDS011;12348;42.710;23.378;2022-12-18T08:58:50;25.27;;;11.47;;
20076;SDS011;12348;42.710;23.378;2022-12-18T09:01:18;24.57;;;10.47;;
20076;SDS011;12348;42.710;23.378;2022-12-18T09:03:44;26.00;;;11.87;;
20076;SDS011;12348;42.710;23.378;2022-12-18T09:06:13;17.50;;;8.87;;
20076;SDS011;12348;42.710;23.378;2022-12-18T09:08:42;21.23;;;10.33;;
20076;SDS011;12348;42.710;23.378;2022-12-18T09:11:11;26.47;;;11.90;;
20076;SDS011;12348;42.710;23.378;2022-12-18T09:13:40;23.53;;;11.33;;
20076;SDS011;12348;42.710;23.378;2022-12-18T09:16:07;25.90;;;11.30;;
20076;SDS011;12348;42.710;23.378;2022-12-18T09:18:33;31.90;;;11.07;;
20076;SDS011;12348;42.710;23.378;2022-12-18T09:21:06;25.73;;;11.07;;
20076;SDS011;12348;42.710;23.378;2022-12-18T09:23:34;23.43;;;11.30;;
20076;SDS011;12348;42.710;23.378;2022-12-18T09:26:02;22.03;;;8.90;;
20076;SDS011;12348;42.710;23.378;2022-12-18T09:28:29;25.27;;;10.13;;
20076;SDS011;12348;42.710;23.378;2022-12-18T09:30:56;21.37;;;10.27;;
20076;SDS011;12348;42.710;23.378;2022-12-18T09:33:22;18.70;;;10.00;;
20076;SDS011;12348;42.710;23.378;2022-12-18T09:35:49;19.53;;;10.13;;
20076;SDS011;12348;42.710;23.378;2022-12-18T09:38:18;30.10;;;12.53;;
20076;SDS011;12348;42.710;23.378;2022-12-18T09:40:46;26.73;;;12.83;;
20076;SDS011;12348;42.710;23.378;2022-12-18T09:43:17;24.50;;;11.37;;
20076;SDS011;12348;42.710;23.378;2022-12-18T09:45:47;26.60;;;10.87;;
20076;SDS011;12348;42.710;23.378;2022-12-18T09:48:19;23.60;;;11.03;;
20076;SDS011;12348;42.710;23.378;2022-12-18T09:50:50;25.33;;;11.23;;
20076;SDS011;12348;42.710;23.378;2022-12-18T09:53:19;11.50;;;6.83;;
20076;SDS011;12348;42.710;23.378;2022-12-18T09:55:48;23.23;;;11.63;;
20076;SDS011;12348;42.710;23.378;2022-12-18T09:58:20;21.20;;;10.20;;
20076;SDS011;12348;42.710;23.378;2022-12-18T10:00:53;24.67;;;12.00;;
20076;SDS011;12348;42.710;23.378;2022-12-18T10:03:20;29.53;;;12.93;;
20076;SDS011;12348;42.710;23.378;2022-12-18T10:05:51;23.53;;;10.50;;
20076;SDS011;12348;42.710;23.378;2022-12-18T10:08:28;29.77;;;13.07;;
20076;SDS011;12348;42.710;23.378;2022-12-18T10:11:03;25.50;;;13.07;;
20076;SDS011;12348;42.710;23.378;2022-12-18T10:13:45;21.50;;;10.57;;
20076;SDS011;12348;42.710;23.378;2022-12-18T10:16:19;24.00;;;11.73;;
20076;SDS011;12348;42.710;23.378;2022-12-18T10:19:00;25.87;;;11.67;;
20076;SDS011;12348;42.710;23.378;2022-12-18T10:21:39;27.53;;;12.30;;
20076;SDS011;12348;42.710;23.378;2022-12-18T10:24:13;24.37;;;11.03;;
20076;SDS011;12348;42.710;23.378;2022-12-18T10:26:49;22.53;;;11.83;;
20076;SDS011;12348;42.710;23.378;2022-12-18T10:29:17;23.03;;;9.37;;
20076;SDS011;12348;42.710;23.378;2022-12-18T10:31:44;25.03;;;11.80;;
20076;SDS011;12348;42.710;23.378;2022-12-18T10:34:11;37.17;;;10.97;;
20076;SDS011;12348;42.710;23.378;2022-12-18T10:36:38;19.07;;;10.57;;
20076;SDS011;12348;42.710;23.378;2022-12-18T10:39:15;21.30;;;10.37;;
20076;SDS011;12348;42.710;23.378;2022-12-18T10:41:43;22.70;;;10.40;;
20076;SDS011;12348;42.710;23.378;2022-12-18T10:44:11;17.40;;;8.60;;
20076;SDS011;12348;42.710;23.378;2022-12-18T10:46:45;25.30;;;12.70;;
20076;SDS011;12348;42.710;23.378;2022-12-18T10:49:18;19.20;;;10.33;;
20076;SDS011;12348;42.710;23.378;2022-12-18T10:51:47;20.27;;;10.07;;
20076;SDS011;12348;42.710;23.378;2022-12-18T10:54:15;24.20;;;9.97;;
20076;SDS011;12348;42.710;23.378;2022-12-18T10:56:45;25.53;;;10.93;;
20076;SDS011;12348;42.710;23.378;2022-12-18T10:59:12;23.00;;;10.13;;
20076;SDS011;12348;42.710;23.378;2022-12-18T11:01:47;22.83;;;10.63;;
20076;SDS011;12348;42.710;23.378;2022-12-18T11:04:17;22.13;;;11.07;;
20076;SDS011;12348;42.710;23.378;2022-12-18T11:06:56;24.90;;;11.60;;
20076;SDS011;12348;42.710;23.378;2022-12-18T11:09:25;20.80;;;11.20;;
20076;SDS011;12348;42.710;23.378;2022-12-18T11:11:53;21.97;;;11.87;;
20076;SDS011;12348;42.710;23.378;2022-12-18T11:14:22;26.07;;;11.10;;
20076;SDS011;12348;42.710;23.378;2022-12-18T11:16:52;22.90;;;10.63;;
20076;SDS011;12348;42.710;23.378;2022-12-18T11:19:28;19.90;;;9.63;;
20076;SDS011;12348;42.710;23.378;2022-12-18T11:21:59;22.90;;;10.23;;
20076;SDS011;12348;42.710;23.378;2022-12-18T11:24:27;20.70;;;11.33;;
20076;SDS011;12348;42.710;23.378;2022-12-18T11:26:57;30.13;;;12.27;;
20076;SDS011;12348;42.710;23.378;2022-12-18T11:29:35;24.60;;;11.33;;
20076;SDS011;12348;42.710;23.378;2022-12-18T11:32:19;26.23;;;9.37;;
20076;SDS011;12348;42.710;23.378;2022-12-18T11:34:52;29.00;;;11.33;;
20076;SDS011;12348;42.710;23.378;2022-12-18T11:37:25;24.80;;;11.20;;
20076;SDS011;12348;42.710;23.378;2022-12-18T11:39:55;23.70;;;10.30;;
20076;SDS011;12348;42.710;23.378;2022-12-18T11:42:27;22.17;;;10.73;;
20076;SDS011;12348;42.710;23.378;2022-12-18T11:45:03;22.97;;;10.60;;
20076;SDS011;12348;42.710;23.378;2022-12-18T11:47:49;19.67;;;9.53;;
20076;SDS011;12348;42.710;23.378;2022-12-18T11:50:23;20.40;;;9.70;;
20076;SDS011;12348;42.710;23.378;2022-12-18T11:52:51;25.00;;;10.73;;
20076;SDS011;12348;42.710;23.378;2022-12-18T11:55:19;24.70;;;10.83;;
20076;SDS011;12348;42.710;23.378;2022-12-18T11:57:55;24.83;;;10.70;;
20076;SDS011;12348;42.710;23.378;2022-12-18T12:00:29;17.80;;;9.70;;
20076;SDS011;12348;42.710;23.378;2022-12-18T12:03:05;21.93;;;9.50;;
20076;SDS011;12348;42.710;23.378;2022-12-18T12:05:48;23.50;;;10.27;;
20076;SDS011;12348;42.710;23.378;2022-12-18T12:08:38;25.60;;;10.80;;
20076;SDS011;12348;42.710;23.378;2022-12-18T12:11:20;22.30;;;11.70;;
20076;SDS011;12348;42.710;23.378;2022-12-18T12:14:00;26.97;;;10.83;;
20076;SDS011;12348;42.710;23.378;2022-12-18T12:16:41;27.17;;;10.47;;
20076;SDS011;12348;42.710;23.378;2022-12-18T12:19:22;24.53;;;11.80;;
20076;SDS011;12348;42.710;23.378;2022-12-18T12:21:58;28.97;;;12.43;;
20076;SDS011;12348;42.710;23.378;2022-12-18T12:24:34;25.30;;;12.60;;
20076;SDS011;12348;42.710;23.378;2022-12-18T12:27:14;25.73;;;12.23;;
20076;SDS011;12348;42.710;23.378;2022-12-18T12:29:54;26.33;;;11.90;;
20076;SDS011;12348;42.710;23.378;2022-12-18T12:32:36;30.67;;;11.30;;
20076;SDS011;12348;42.710;23.378;2022-12-18T12:35:22;30.63;;;12.80;;
20076;SDS011;12348;42.710;23.378;2022-12-18T12:37:58;26.07;;;13.37;;
20076;SDS011;12348;42.710;23.378;2022-12-18T12:40:34;27.53;;;11.50;;
20076;SDS011;12348;42.710;23.378;2022-12-18T12:43:10;28.30;;;13.57;;
20076;SDS011;12348;42.710;23.378;2022-12-18T12:45:46;34.37;;;13.33;;
20076;SDS011;12348;42.710;23.378;2022-12-18T12:48:16;24.77;;;10.83;;
20076;SDS011;12348;42.710;23.378;2022-12-18T12:50:50;25.67;;;10.73;;
20076;SDS011;12348;42.710;23.378;2022-12-18T12:53:21;32.97;;;14.23;;
20076;SDS011;12348;42.710;23.378;2022-12-18T12:55:53;28.57;;;14.70;;
20076;SDS011;12348;42.710;23.378;2022-12-18T12:58:23;23.07;;;12.07;;
20076;SDS011;12348;42.710;23.378;2022-12-18T13:00:59;22.17;;;9.90;;
20076;SDS011;12348;42.710;23.378;2022-12-18T13:03:36;26.60;;;11.70;;
20076;SDS011;12348;42.710;23.378;2022-12-18T13:06:13;25.07;;;11.37;;
20076;SDS011;12348;42.710;23.378;2022-12-18T13:08:52;20.53;;;10.40;;
20076;SDS011;12348;42.710;23.378;2022-12-18T13:11:29;26.07;;;11.73;;
20076;SDS011;12348;42.710;23.378;2022-12-18T13:14:25;25.43;;;10.50;;
20076;SDS011;12348;42.710;23.378;2022-12-18T13:20:02;32.47;;;13.20;;
20076;SDS011;12348;42.710;23.378;2022-12-18T13:22:34;20.93;;;10.43;;
20076;SDS011;12348;42.710;23.378;2022-12-18T13:25:03;20.70;;;10.40;;
20076;SDS011;12348;42.710;23.378;2022-12-18T13:27:59;23.03;;;9.40;;
20076;SDS011;12348;42.710;23.378;2022-12-18T13:36:12;20.03;;;9.23;;
20076;SDS011;12348;42.710;23.378;2022-12-18T13:41:53;22.30;;;12.20;;
20076;SDS011;12348;42.710;23.378;2022-12-18T13:44:54;20.30;;;11.40;;
20076;SDS011;12348;42.710;23.378;2022-12-18T13:47:25;24.53;;;10.40;;
20076;SDS011;12348;42.710;23.378;2022-12-18T13:49:54;27.10;;;12.53;;
20076;SDS011;12348;42.710;23.378;2022-12-18T13:52:22;22.00;;;10.80;;
20076;SDS011;12348;42.710;23.378;2022-12-18T13:54:52;24.27;;;11.83;;
20076;SDS011;12348;42.710;23.378;2022-12-18T13:57:28;25.47;;;12.17;;
20076;SDS011;12348;42.710;23.378;2022-12-18T13:59:58;25.70;;;11.70;;
20076;SDS011;12348;42.710;23.378;2022-12-18T14:02:44;26.43;;;12.57;;
20076;SDS011;12348;42.710;23.378;2022-12-18T14:05:21;25.63;;;10.63;;
20076;SDS011;12348;42.710;23.378;2022-12-18T14:07:48;25.60;;;12.23;;
20076;SDS011;12348;42.710;23.378;2022-12-18T14:10:15;21.40;;;11.33;;
20076;SDS011;12348;42.710;23.378;2022-12-18T14:12:46;25.03;;;10.90;;
20076;SDS011;12348;42.710;23.378;2022-12-18T14:15:25;22.83;;;10.80;;
20076;SDS011;12348;42.710;23.378;2022-12-18T14:17:58;26.80;;;10.60;;
20076;SDS011;12348;42.710;23.378;2022-12-18T14:20:27;19.43;;;10.03;;
20076;SDS011;12348;42.710;23.378;2022-12-18T14:22:57;25.87;;;10.83;;
20076;SDS011;12348;42.710;23.378;2022-12-18T14:25:26;18.37;;;9.80;;
20076;SDS011;12348;42.710;23.378;2022-12-18T14:28:07;24.63;;;10.73;;
20076;SDS011;12348;42.710;23.378;2022-12-18T14:30:40;23.43;;;9.73;;
20076;SDS011;12348;42.710;23.378;2022-12-18T14:33:09;20.53;;;10.70;;
20076;SDS011;12348;42.710;23.378;2022-12-18T14:35:37;20.77;;;10.53;;
20076;SDS011;12348;42.710;23.378;2022-12-18T14:38:10;23.33;;;10.53;;
20076;SDS011;12348;42.710;23.378;2022-12-18T14:40:44;19.97;;;9.33;;
20076;SDS011;12348;42.710;23.378;2022-12-18T14:43:12;23.53;;;10.37;;
20076;SDS011;12348;42.710;23.378;2022-12-18T14:45:39;26.80;;;10.70;;